sensor_id;sensor_type;location;lat;lon;timestamp;pressure;altitude;pressure_sealevel;temperature;humidity
20930;BME280;21895;47.072;15.132;2022-08-25T00:02:05;96901.00;;;19.09;83.19
20930;BME280;21895;47.072;15.132;2022-08-25T00:04:33;96899.00;;;19.19;82.54
20930;BME280;21895;47.072;15.132;2022-08-25T00:07:04;96905.00;;;19.16;80.74
20930;BME280;21895;47.072;15.132;2022-08-25T00:09:33;96899.00;;;19.04;80.31
20930;BME280;21895;47.072;15.132;2022-08-25T00:12:01;96901.00;;;18.93;80.71
20930;BME280;21895;47.072;15.132;2022-08-25T00:14:33;96898.00;;;18.92;80.35
20930;BME280;21895;47.072;15.132;2022-08-25T00:17:01;96897.00;;;18.89;80.36
20930;BME280;21895;47.072;15.132;2022-08-25T00:19:32;96892.00;;;18.84;81.15
20930;BME280;21895;47.072;15.132;2022-08-25T00:22:01;96886.00;;;18.84;80.69
20930;BME280;21895;47.072;15.132;2022-08-25T00:24:28;96884.00;;;18.81;80.12
20930;BME280;21895;47.072;15.132;2022-08-25T00:26:58;96878.00;;;18.86;78.74
20930;BME280;21895;47.072;15.132;2022-08-25T00:29:25;96886.00;;;18.72;79.49
20930;BME280;21895;47.072;15.132;2022-08-25T00:31:54;96883.00;;;18.68;80.09
20930;BME280;21895;47.072;15.132;2022-08-25T00:34:28;96885.00;;;18.71;80.30
20930;BME280;21895;47.072;15.132;2022-08-25T00:36:55;96886.00;;;18.62;80.79
20930;BME280;21895;47.072;15.132;2022-08-25T00:39:23;96876.00;;;18.59;81.15
20930;BME280;21895;47.072;15.132;2022-08-25T00:41:55;96882.00;;;18.64;82.38
20930;BME280;21895;47.072;15.132;2022-08-25T00:44:25;96880.00;;;18.75;83.28
20930;BME280;21895;47.072;15.132;2022-08-25T00:46:56;96872.00;;;18.88;82.69
20930;BME280;21895;47.072;15.132;2022-08-25T00:49:58;96874.00;;;18.68;83.56
20930;BME280;21895;47.072;15.132;2022-08-25T00:52:51;96875.00;;;18.55;84.03
20930;BME280;21895;47.072;15.132;2022-08-25T00:55:35;96877.00;;;18.49;84.70
20930;BME280;21895;47.072;15.132;2022-08-25T00:58:15;96874.00;;;18.62;84.29
20930;BME280;21895;47.072;15.132;2022-08-25T01:00:50;96876.00;;;18.74;83.39
20930;BME280;21895;47.072;15.132;2022-08-25T01:03:19;96871.00;;;18.68;83.38
20930;BME280;21895;47.072;15.132;2022-08-25T01:05:46;96872.00;;;18.77;83.03
20930;BME280;21895;47.072;15.132;2022-08-25T01:08:14;96866.00;;;18.82;82.41
20930;BME280;21895;47.072;15.132;2022-08-25T01:10:46;96864.00;;;18.90;81.96
20930;BME280;21895;47.072;15.132;2022-08-25T01:13:23;96863.00;;;18.95;81.58
20930;BME280;21895;47.072;15.132;2022-08-25T01:15:55;96861.00;;;18.88;81.38
20930;BME280;21895;47.072;15.132;2022-08-25T01:18:26;96858.00;;;18.92;80.92
20930;BME280;21895;47.072;15.132;2022-08-25T01:20:55;96859.00;;;18.93;80.84
20930;BME280;21895;47.072;15.132;2022-08-25T01:23:23;96855.00;;;18.78;80.99
20930;BME280;21895;47.072;15.132;2022-08-25T01:27:12;96856.00;;;18.56;82.22
20930;BME280;21895;47.072;15.132;2022-08-25T01:29:40;96850.00;;;18.68;82.21
20930;BME280;21895;47.072;15.132;2022-08-25T01:32:11;96852.00;;;18.64;81.91
20930;BME280;21895;47.072;15.132;2022-08-25T01:34:43;96843.00;;;18.63;81.99
20930;BME280;21895;47.072;15.132;2022-08-25T01:37:13;96849.00;;;18.66;81.98
20930;BME280;21895;47.072;15.132;2022-08-25T01:39:42;96847.00;;;18.68;81.74
20930;BME280;21895;47.072;15.132;2022-08-25T01:42:27;96848.00;;;18.75;81.56
20930;BME280;21895;47.072;15.132;2022-08-25T01:44:54;96849.00;;;18.83;81.13
20930;BME280;21895;47.072;15.132;2022-08-25T01:47:20;96846.00;;;18.75;81.20
20930;BME280;21895;47.072;15.132;2022-08-25T01:49:47;96845.00;;;18.79;80.83
20930;BME280;21895;47.072;15.132;2022-08-25T01:52:32;96848.00;;;18.80;80.92
20930;BME280;21895;47.072;15.132;2022-08-25T01:54:59;96839.00;;;18.66;81.25
20930;BME280;21895;47.072;15.132;2022-08-25T01:57:28;96833.00;;;18.69;81.07
20930;BME280;21895;47.072;15.132;2022-08-25T01:59:55;96840.00;;;18.63;81.21
20930;BME280;21895;47.072;15.132;2022-08-25T02:02:21;96834.00;;;18.76;80.87
20930;BME280;21895;47.072;15.132;2022-08-25T02:04:52;96837.00;;;18.68;81.01
20930;BME280;21895;47.072;15.132;2022-08-25T02:07:19;96844.00;;;18.78;80.92
20930;BME280;21895;47.072;15.132;2022-08-25T02:09:46;96841.00;;;18.66;80.91
20930;BME280;21895;47.072;15.132;2022-08-25T02:12:12;96840.00;;;18.69;80.99
20930;BME280;21895;47.072;15.132;2022-08-25T02:14:39;96838.00;;;18.69;80.91
20930;BME280;21895;47.072;15.132;2022-08-25T02:17:08;96846.00;;;18.58;80.97
20930;BME280;21895;47.072;15.132;2022-08-25T02:19:35;96835.00;;;18.69;80.57
20930;BME280;21895;47.072;15.132;2022-08-25T02:22:02;96846.00;;;18.81;80.07
20930;BME280;21895;47.072;15.132;2022-08-25T02:24:29;96832.00;;;18.65;80.10
20930;BME280;21895;47.072;15.132;2022-08-25T02:26:56;96836.00;;;18.78;79.59
20930;BME280;21895;47.072;15.132;2022-08-25T02:29:23;96834.00;;;18.83;79.13
20930;BME280;21895;47.072;15.132;2022-08-25T02:31:50;96829.00;;;18.63;80.15
20930;BME280;21895;47.072;15.132;2022-08-25T02:34:16;96837.00;;;18.53;80.54
20930;BME280;21895;47.072;15.132;2022-08-25T02:36:43;96832.00;;;18.57;80.60
20930;BME280;21895;47.072;15.132;2022-08-25T02:39:10;96827.00;;;18.54;80.57
20930;BME280;21895;47.072;15.132;2022-08-25T02:41:37;96829.00;;;18.61;79.52
20930;BME280;21895;47.072;15.132;2022-08-25T02:44:06;96836.00;;;18.54;79.69
20930;BME280;21895;47.072;15.132;2022-08-25T02:46:34;96827.00;;;18.35;80.33
20930;BME280;21895;47.072;15.132;2022-08-25T02:49:01;96820.00;;;18.27;80.88
20930;BME280;21895;47.072;15.132;2022-08-25T02:51:29;96817.00;;;18.27;81.14
20930;BME280;21895;47.072;15.132;2022-08-25T02:53:57;96812.00;;;18.20;81.30
20930;BME280;21895;47.072;15.132;2022-08-25T02:56:26;96811.00;;;18.28;81.19
20930;BME280;21895;47.072;15.132;2022-08-25T02:58:53;96813.00;;;18.37;81.07
20930;BME280;21895;47.072;15.132;2022-08-25T03:01:20;96805.00;;;18.37;80.70
20930;BME280;21895;47.072;15.132;2022-08-25T03:03:55;96803.00;;;18.47;80.57
20930;BME280;21895;47.072;15.132;2022-08-25T03:06:22;96799.00;;;18.51;79.83
20930;BME280;21895;47.072;15.132;2022-08-25T03:08:50;96799.00;;;18.48;79.30
20930;BME280;21895;47.072;15.132;2022-08-25T03:11:17;96804.00;;;18.49;79.35
20930;BME280;21895;47.072;15.132;2022-08-25T03:13:44;96807.00;;;18.42;79.70
20930;BME280;21895;47.072;15.132;2022-08-25T03:16:11;96806.00;;;18.48;79.54
20930;BME280;21895;47.072;15.132;2022-08-25T03:18:40;96805.00;;;18.61;79.36
20930;BME280;21895;47.072;15.132;2022-08-25T03:21:10;96811.00;;;18.66;78.87
20930;BME280;21895;47.072;15.132;2022-08-25T03:23:37;96812.00;;;18.64;79.03
20930;BME280;21895;47.072;15.132;2022-08-25T03:26:04;96807.00;;;18.70;79.00
20930;BME280;21895;47.072;15.132;2022-08-25T03:28:49;96810.00;;;18.82;78.82
20930;BME280;21895;47.072;15.132;2022-08-25T03:31:15;96802.00;;;18.87;77.81
20930;BME280;21895;47.072;15.132;2022-08-25T03:33:42;96804.00;;;18.88;77.49
20930;BME280;21895;47.072;15.132;2022-08-25T03:36:09;96797.00;;;18.94;77.20
20930;BME280;21895;47.072;15.132;2022-08-25T03:38:39;96798.00;;;18.85;77.35
20930;BME280;21895;47.072;15.132;2022-08-25T03:41:25;96795.00;;;18.69;78.41
20930;BME280;21895;47.072;15.132;2022-08-25T03:43:56;96798.00;;;18.66;79.49
20930;BME280;21895;47.072;15.132;2022-08-25T03:46:30;96797.00;;;18.86;79.34
20930;BME280;21895;47.072;15.132;2022-08-25T03:48:56;96795.00;;;18.79;79.38
20930;BME280;21895;47.072;15.132;2022-08-25T03:51:31;96788.00;;;18.78;79.43
20930;BME280;21895;47.072;15.132;2022-08-25T03:53:59;96790.00;;;18.69;79.80
20930;BME280;21895;47.072;15.132;2022-08-25T03:56:27;96793.00;;;18.66;80.03
20930;BME280;21895;47.072;15.132;2022-08-25T03:58:54;96785.00;;;18.63;79.84
20930;BME280;21895;47.072;15.132;2022-08-25T04:01:22;96785.00;;;18.56;79.23
20930;BME280;21895;47.072;15.132;2022-08-25T04:03:49;96786.00;;;18.69;79.12
20930;BME280;21895;47.072;15.132;2022-08-25T04:06:17;96775.00;;;18.63;79.09
20930;BME280;21895;47.072;15.132;2022-08-25T04:08:45;96776.00;;;18.83;78.73
20930;BME280;21895;47.072;15.132;2022-08-25T04:11:20;96772.00;;;18.87;78.70
20930;BME280;21895;47.072;15.132;2022-08-25T04:13:47;96770.00;;;18.96;77.56
20930;BME280;21895;47.072;15.132;2022-08-25T04:16:19;96769.00;;;19.11;76.78
20930;BME280;21895;47.072;15.132;2022-08-25T04:18:47;96776.00;;;18.95;77.32
20930;BME280;21895;47.072;15.132;2022-08-25T04:21:17;96768.00;;;18.93;77.65
20930;BME280;21895;47.072;15.132;2022-08-25T04:23:46;96774.00;;;18.86;78.30
20930;BME280;21895;47.072;15.132;2022-08-25T04:26:28;96767.00;;;18.84;78.58
20930;BME280;21895;47.072;15.132;2022-08-25T04:28:58;96781.00;;;19.13;77.01
20930;BME280;21895;47.072;15.132;2022-08-25T04:31:27;96769.00;;;19.19;76.63
20930;BME280;21895;47.072;15.132;2022-08-25T04:33:54;96778.00;;;19.22;76.49
20930;BME280;21895;47.072;15.132;2022-08-25T04:36:21;96771.00;;;19.26;76.41
20930;BME280;21895;47.072;15.132;2022-08-25T04:38:49;96776.00;;;19.16;76.64
20930;BME280;21895;47.072;15.132;2022-08-25T04:41:19;96774.00;;;19.29;76.32
20930;BME280;21895;47.072;15.132;2022-08-25T04:43:46;96779.00;;;19.19;76.15
20930;BME280;21895;47.072;15.132;2022-08-25T04:46:24;96781.00;;;19.27;76.20
20930;BME280;21895;47.072;15.132;2022-08-25T04:48:53;96783.00;;;19.30;75.84
20930;BME280;21895;47.072;15.132;2022-08-25T04:51:27;96794.00;;;19.38;75.79
20930;BME280;21895;47.072;15.132;2022-08-25T04:53:56;96796.00;;;19.27;76.07
20930;BME280;21895;47.072;15.132;2022-08-25T04:56:24;96796.00;;;19.26;76.40
20930;BME280;21895;47.072;15.132;2022-08-25T04:58:52;96793.00;;;19.22;77.20
20930;BME280;21895;47.072;15.132;2022-08-25T05:01:24;96790.00;;;19.39;77.76
20930;BME280;21895;47.072;15.132;2022-08-25T05:04:01;96794.00;;;19.64;77.22
20930;BME280;21895;47.072;15.132;2022-08-25T05:06:29;96796.00;;;19.67;77.19
20930;BME280;21895;47.072;15.132;2022-08-25T05:08:57;96796.00;;;19.62;77.67
20930;BME280;21895;47.072;15.132;2022-08-25T05:11:25;96796.00;;;19.69;77.87
20930;BME280;21895;47.072;15.132;2022-08-25T05:13:54;96794.00;;;19.81;77.19
20930;BME280;21895;47.072;15.132;2022-08-25T05:16:24;96791.00;;;19.91;76.03
20930;BME280;21895;47.072;15.132;2022-08-25T05:18:53;96787.00;;;20.01;75.77
20930;BME280;21895;47.072;15.132;2022-08-25T05:21:24;96790.00;;;19.95;76.55
20930;BME280;21895;47.072;15.132;2022-08-25T05:23:57;96802.00;;;20.10;75.74
20930;BME280;21895;47.072;15.132;2022-08-25T05:26:27;96805.00;;;20.33;74.05
20930;BME280;21895;47.072;15.132;2022-08-25T05:28:57;96801.00;;;20.18;75.02
20930;BME280;21895;47.072;15.132;2022-08-25T05:31:25;96799.00;;;20.27;75.00
20930;BME280;21895;47.072;15.132;2022-08-25T05:33:53;96797.00;;;20.38;75.14
20930;BME280;21895;47.072;15.132;2022-08-25T05:36:22;96803.00;;;20.42;74.97
20930;BME280;21895;47.072;15.132;2022-08-25T05:38:49;96791.00;;;20.51;74.80
20930;BME280;21895;47.072;15.132;2022-08-25T05:41:19;96795.00;;;20.60;74.86
20930;BME280;21895;47.072;15.132;2022-08-25T05:43:48;96803.00;;;20.79;74.29
20930;BME280;21895;47.072;15.132;2022-08-25T05:46:17;96797.00;;;20.99;72.26
20930;BME280;21895;47.072;15.132;2022-08-25T05:48:44;96803.00;;;21.09;71.88
20930;BME280;21895;47.072;15.132;2022-08-25T05:51:12;96802.00;;;21.30;70.92
20930;BME280;21895;47.072;15.132;2022-08-25T05:53:45;96806.00;;;21.33;70.69
20930;BME280;21895;47.072;15.132;2022-08-25T05:56:13;96808.00;;;21.32;71.37
20930;BME280;21895;47.072;15.132;2022-08-25T05:58:42;96813.00;;;21.34;70.92
20930;BME280;21895;47.072;15.132;2022-08-25T06:01:18;96810.00;;;21.52;69.96
20930;BME280;21895;47.072;15.132;2022-08-25T06:04:03;96800.00;;;21.63;69.10
20930;BME280;21895;47.072;15.132;2022-08-25T06:06:30;96802.00;;;21.72;68.88
20930;BME280;21895;47.072;15.132;2022-08-25T06:08:56;96810.00;;;21.82;68.76
20930;BME280;21895;47.072;15.132;2022-08-25T06:11:23;96808.00;;;21.95;69.39
20930;BME280;21895;47.072;15.132;2022-08-25T06:13:49;96807.00;;;22.26;69.53
20930;BME280;21895;47.072;15.132;2022-08-25T06:16:16;96806.00;;;22.36;68.96
20930;BME280;21895;47.072;15.132;2022-08-25T06:18:43;96809.00;;;22.58;68.20
20930;BME280;21895;47.072;15.132;2022-08-25T06:21:13;96813.00;;;22.90;66.08
20930;BME280;21895;47.072;15.132;2022-08-25T06:23:40;96812.00;;;22.91;66.38
20930;BME280;21895;47.072;15.132;2022-08-25T06:26:10;96810.00;;;22.99;65.76
20930;BME280;21895;47.072;15.132;2022-08-25T06:28:51;96816.00;;;23.11;65.77
20930;BME280;21895;47.072;15.132;2022-08-25T06:31:19;96816.00;;;23.25;65.28
20930;BME280;21895;47.072;15.132;2022-08-25T06:33:45;96816.00;;;23.41;65.73
20930;BME280;21895;47.072;15.132;2022-08-25T06:36:12;96815.00;;;23.50;63.31
20930;BME280;21895;47.072;15.132;2022-08-25T06:38:39;96826.00;;;23.66;63.28
20930;BME280;21895;47.072;15.132;2022-08-25T06:41:07;96819.00;;;23.75;63.29
20930;BME280;21895;47.072;15.132;2022-08-25T06:43:40;96819.00;;;23.93;61.55
20930;BME280;21895;47.072;15.132;2022-08-25T06:46:19;96816.00;;;24.32;60.53
20930;BME280;21895;47.072;15.132;2022-08-25T06:48:48;96817.00;;;24.26;59.05
20930;BME280;21895;47.072;15.132;2022-08-25T06:51:17;96818.00;;;24.30;59.77
20930;BME280;21895;47.072;15.132;2022-08-25T06:53:47;96820.00;;;24.43;58.70
20930;BME280;21895;47.072;15.132;2022-08-25T06:56:15;96821.00;;;24.42;59.14
20930;BME280;21895;47.072;15.132;2022-08-25T06:58:42;96815.00;;;24.23;59.65
20930;BME280;21895;47.072;15.132;2022-08-25T07:01:22;96819.00;;;24.20;60.04
20930;BME280;21895;47.072;15.132;2022-08-25T07:03:56;96821.00;;;24.11;60.59
20930;BME280;21895;47.072;15.132;2022-08-25T07:06:25;96823.00;;;24.14;60.87
20930;BME280;21895;47.072;15.132;2022-08-25T07:08:53;96821.00;;;24.34;61.17
20930;BME280;21895;47.072;15.132;2022-08-25T07:11:20;96824.00;;;24.79;60.24
20930;BME280;21895;47.072;15.132;2022-08-25T07:13:47;96827.00;;;25.05;58.95
20930;BME280;21895;47.072;15.132;2022-08-25T07:16:15;96824.00;;;25.08;57.90
20930;BME280;21895;47.072;15.132;2022-08-25T07:18:44;96825.00;;;25.18;57.42
20930;BME280;21895;47.072;15.132;2022-08-25T07:21:13;96828.00;;;25.30;56.34
20930;BME280;21895;47.072;15.132;2022-08-25T07:23:41;96827.00;;;25.20;57.17
20930;BME280;21895;47.072;15.132;2022-08-25T07:26:24;96834.00;;;25.29;56.88
20930;BME280;21895;47.072;15.132;2022-08-25T07:29:23;96828.00;;;25.30;55.66
20930;BME280;21895;47.072;15.132;2022-08-25T07:32:04;96827.00;;;25.29;55.47
20930;BME280;21895;47.072;15.132;2022-08-25T07:34:31;96839.00;;;25.66;55.17
20930;BME280;21895;47.072;15.132;2022-08-25T07:37:20;96839.00;;;25.96;53.80
20930;BME280;21895;47.072;15.132;2022-08-25T07:40:22;96839.00;;;25.96;52.96
20930;BME280;21895;47.072;15.132;2022-08-25T07:42:52;96834.00;;;25.98;53.80
20930;BME280;21895;47.072;15.132;2022-08-25T07:45:21;96838.00;;;26.08;54.53
20930;BME280;21895;47.072;15.132;2022-08-25T07:48:09;96839.00;;;26.19;52.99
20930;BME280;21895;47.072;15.132;2022-08-25T07:50:40;96838.00;;;26.40;52.42
20930;BME280;21895;47.072;15.132;2022-08-25T07:53:08;96838.00;;;26.56;52.32
20930;BME280;21895;47.072;15.132;2022-08-25T07:55:37;96837.00;;;26.61;53.51
20930;BME280;21895;47.072;15.132;2022-08-25T07:58:06;96830.00;;;26.72;53.21
20930;BME280;21895;47.072;15.132;2022-08-25T08:00:36;96832.00;;;27.03;51.76
20930;BME280;21895;47.072;15.132;2022-08-25T08:03:07;96839.00;;;27.44;50.65
20930;BME280;21895;47.072;15.132;2022-08-25T08:05:49;96838.00;;;27.92;50.58
20930;BME280;21895;47.072;15.132;2022-08-25T08:08:16;96846.00;;;28.62;49.39
20930;BME280;21895;47.072;15.132;2022-08-25T08:10:44;96842.00;;;28.70;47.83
20930;BME280;21895;47.072;15.132;2022-08-25T08:13:32;96841.00;;;29.01;47.85
20930;BME280;21895;47.072;15.132;2022-08-25T08:16:12;96851.00;;;29.25;47.73
20930;BME280;21895;47.072;15.132;2022-08-25T08:18:40;96856.00;;;28.79;47.29
20930;BME280;21895;47.072;15.132;2022-08-25T08:21:20;96848.00;;;28.49;48.50
20930;BME280;21895;47.072;15.132;2022-08-25T08:23:50;96848.00;;;28.38;49.03
20930;BME280;21895;47.072;15.132;2022-08-25T08:26:25;96846.00;;;27.89;50.65
20930;BME280;21895;47.072;15.132;2022-08-25T08:29:14;96852.00;;;27.87;52.08
20930;BME280;21895;47.072;15.132;2022-08-25T08:31:41;96857.00;;;28.08;50.65
20930;BME280;21895;47.072;15.132;2022-08-25T08:34:15;96861.00;;;28.19;50.61
20930;BME280;21895;47.072;15.132;2022-08-25T08:36:42;96864.00;;;27.96;51.50
20930;BME280;21895;47.072;15.132;2022-08-25T08:39:11;96860.00;;;27.80;51.63
20930;BME280;21895;47.072;15.132;2022-08-25T08:42:25;96866.00;;;27.44;52.27
20930;BME280;21895;47.072;15.132;2022-08-25T08:45:37;96863.00;;;27.14;53.46
20930;BME280;21895;47.072;15.132;2022-08-25T08:48:45;96852.00;;;26.57;55.15
20930;BME280;21895;47.072;15.132;2022-08-25T08:51:23;96855.00;;;26.48;55.86
20930;BME280;21895;47.072;15.132;2022-08-25T08:54:18;96850.00;;;26.27;56.50
20930;BME280;21895;47.072;15.132;2022-08-25T08:57:19;96846.00;;;26.21;56.68
20930;BME280;21895;47.072;15.132;2022-08-25T09:00:09;96862.00;;;26.28;56.13
20930;BME280;21895;47.072;15.132;2022-08-25T09:04:14;96859.00;;;26.17;56.60
20930;BME280;21895;47.072;15.132;2022-08-25T09:06:48;96853.00;;;26.05;57.18
20930;BME280;21895;47.072;15.132;2022-08-25T09:09:26;96846.00;;;26.25;57.34
20930;BME280;21895;47.072;15.132;2022-08-25T09:14:24;96847.00;;;26.51;56.22
20930;BME280;21895;47.072;15.132;2022-08-25T09:19:41;96842.00;;;26.45;56.91
20930;BME280;21895;47.072;15.132;2022-08-25T09:24:11;96848.00;;;26.22;57.39
20930;BME280;21895;47.072;15.132;2022-08-25T09:30:21;96843.00;;;26.26;58.18
20930;BME280;21895;47.072;15.132;2022-08-25T09:32:55;96841.00;;;26.28;58.42
20930;BME280;21895;47.072;15.132;2022-08-25T09:35:35;96838.00;;;26.34;58.05
20930;BME280;21895;47.072;15.132;2022-08-25T09:38:11;96836.00;;;26.43;58.26
20930;BME280;21895;47.072;15.132;2022-08-25T09:40:44;96838.00;;;26.53;58.19
20930;BME280;21895;47.072;15.132;2022-08-25T09:43:53;96838.00;;;26.72;57.36
20930;BME280;21895;47.072;15.132;2022-08-25T09:46:26;96834.00;;;26.73;57.18
20930;BME280;21895;47.072;15.132;2022-08-25T09:49:12;96831.00;;;26.92;56.29
20930;BME280;21895;47.072;15.132;2022-08-25T09:51:39;96830.00;;;27.17;55.68
20930;BME280;21895;47.072;15.132;2022-08-25T09:54:27;96828.00;;;27.19;55.62
20930;BME280;21895;47.072;15.132;2022-08-25T09:58:26;96828.00;;;27.16;55.39
20930;BME280;21895;47.072;15.132;2022-08-25T10:01:17;96825.00;;;27.17;55.31
20930;BME280;21895;47.072;15.132;2022-08-25T10:04:02;96819.00;;;27.26;55.77
20930;BME280;21895;47.072;15.132;2022-08-25T10:06:44;96811.00;;;27.45;53.93
20930;BME280;21895;47.072;15.132;2022-08-25T10:09:29;96807.00;;;27.55;53.91
20930;BME280;21895;47.072;15.132;2022-08-25T10:11:59;96809.00;;;27.62;53.92
20930;BME280;21895;47.072;15.132;2022-08-25T10:14:34;96814.00;;;28.12;52.99
20930;BME280;21895;47.072;15.132;2022-08-25T10:24:00;96806.00;;;29.03;51.39
20930;BME280;21895;47.072;15.132;2022-08-25T10:27:35;96793.00;;;29.28;50.24
20930;BME280;21895;47.072;15.132;2022-08-25T10:30:23;96799.00;;;29.23;49.73
20930;BME280;21895;47.072;15.132;2022-08-25T10:34:04;96795.00;;;29.26;49.46
20930;BME280;21895;47.072;15.132;2022-08-25T10:36:59;96796.00;;;29.14;49.21
20930;BME280;21895;47.072;15.132;2022-08-25T10:39:46;96794.00;;;29.16;48.05
20930;BME280;21895;47.072;15.132;2022-08-25T10:49:49;96787.00;;;29.00;48.85
20930;BME280;21895;47.072;15.132;2022-08-25T10:53:10;96784.00;;;28.59;49.33
20930;BME280;21895;47.072;15.132;2022-08-25T10:57:22;96774.00;;;28.25;50.66
20930;BME280;21895;47.072;15.132;2022-08-25T11:00:11;96780.00;;;28.20;50.79
20930;BME280;21895;47.072;15.132;2022-08-25T11:07:36;96767.00;;;28.08;51.82
20930;BME280;21895;47.072;15.132;2022-08-25T11:10:21;96772.00;;;28.39;51.11
20930;BME280;21895;47.072;15.132;2022-08-25T11:12:59;96758.00;;;28.46;51.16
20930;BME280;21895;47.072;15.132;2022-08-25T11:18:16;96750.00;;;28.60;50.70
20930;BME280;21895;47.072;15.132;2022-08-25T11:25:39;96738.00;;;29.14;49.66
20930;BME280;21895;47.072;15.132;2022-08-25T11:28:34;96739.00;;;29.20;50.22
20930;BME280;21895;47.072;15.132;2022-08-25T11:31:08;96732.00;;;29.19;49.82
20930;BME280;21895;47.072;15.132;2022-08-25T11:33:36;96740.00;;;29.21;49.37
20930;BME280;21895;47.072;15.132;2022-08-25T11:36:30;96734.00;;;29.24;50.10
20930;BME280;21895;47.072;15.132;2022-08-25T11:40:13;96732.00;;;29.13;48.58
20930;BME280;21895;47.072;15.132;2022-08-25T11:46:33;96730.00;;;29.21;47.85
20930;BME280;21895;47.072;15.132;2022-08-25T11:49:49;96716.00;;;29.07;50.59
20930;BME280;21895;47.072;15.132;2022-08-25T11:52:45;96714.00;;;29.37;47.93
20930;BME280;21895;47.072;15.132;2022-08-25T11:55:47;96709.00;;;29.52;47.63
20930;BME280;21895;47.072;15.132;2022-08-25T11:58:49;96694.00;;;29.77;47.65
20930;BME280;21895;47.072;15.132;2022-08-25T12:13:44;96692.00;;;30.24;46.36
20930;BME280;21895;47.072;15.132;2022-08-25T12:16:43;96691.00;;;30.19;46.79
20930;BME280;21895;47.072;15.132;2022-08-25T12:19:54;96696.00;;;30.08;47.62
20930;BME280;21895;47.072;15.132;2022-08-25T12:22:53;96697.00;;;30.27;46.55
20930;BME280;21895;47.072;15.132;2022-08-25T12:25:35;96688.00;;;30.56;46.10
20930;BME280;21895;47.072;15.132;2022-08-25T12:28:33;96695.00;;;30.97;45.12
20930;BME280;21895;47.072;15.132;2022-08-25T12:38:48;96688.00;;;30.73;44.27
20930;BME280;21895;47.072;15.132;2022-08-25T12:41:25;96690.00;;;30.36;46.03
20930;BME280;21895;47.072;15.132;2022-08-25T12:44:42;96695.00;;;30.57;44.89
20930;BME280;21895;47.072;15.132;2022-08-25T12:47:31;96677.00;;;30.61;44.82
20930;BME280;21895;47.072;15.132;2022-08-25T12:50:45;96684.00;;;30.48;44.61
20930;BME280;21895;47.072;15.132;2022-08-25T12:53:33;96674.00;;;30.54;44.26
20930;BME280;21895;47.072;15.132;2022-08-25T13:14:55;96651.00;;;30.55;44.38
20930;BME280;21895;47.072;15.132;2022-08-25T13:17:29;96649.00;;;31.00;43.20
20930;BME280;21895;47.072;15.132;2022-08-25T13:20:22;96656.00;;;31.15;43.17
20930;BME280;21895;47.072;15.132;2022-08-25T13:22:52;96642.00;;;30.79;42.75
20930;BME280;21895;47.072;15.132;2022-08-25T13:25:28;96640.00;;;30.68;42.54
20930;BME280;21895;47.072;15.132;2022-08-25T13:28:04;96642.00;;;30.74;43.35
20930;BME280;21895;47.072;15.132;2022-08-25T13:30:35;96643.00;;;30.59;42.90
20930;BME280;21895;47.072;15.132;2022-08-25T13:33:22;96638.00;;;30.66;42.38
20930;BME280;21895;47.072;15.132;2022-08-25T13:35:55;96642.00;;;30.05;42.66
20930;BME280;21895;47.072;15.132;2022-08-25T13:38:42;96646.00;;;29.98;43.69
20930;BME280;21895;47.072;15.132;2022-08-25T13:41:19;96639.00;;;30.00;44.07
20930;BME280;21895;47.072;15.132;2022-08-25T13:43:46;96636.00;;;30.19;43.85
20930;BME280;21895;47.072;15.132;2022-08-25T13:46:21;96629.00;;;30.15;43.42
20930;BME280;21895;47.072;15.132;2022-08-25T13:48:48;96625.00;;;30.02;43.69
20930;BME280;21895;47.072;15.132;2022-08-25T13:51:25;96622.00;;;29.96;43.13
20930;BME280;21895;47.072;15.132;2022-08-25T13:54:19;96627.00;;;29.87;43.90
20930;BME280;21895;47.072;15.132;2022-08-25T13:56:50;96616.00;;;29.99;43.29
20930;BME280;21895;47.072;15.132;2022-08-25T13:59:26;96620.00;;;29.79;43.64
20930;BME280;21895;47.072;15.132;2022-08-25T14:01:54;96618.00;;;29.67;45.60
20930;BME280;21895;47.072;15.132;2022-08-25T14:06:47;96618.00;;;29.73;45.37
20930;BME280;21895;47.072;15.132;2022-08-25T14:09:17;96621.00;;;29.67;44.37
20930;BME280;21895;47.072;15.132;2022-08-25T14:11:55;96616.00;;;29.50;43.99
20930;BME280;21895;47.072;15.132;2022-08-25T14:14:33;96611.00;;;29.41;44.59
20930;BME280;21895;47.072;15.132;2022-08-25T14:17:08;96607.00;;;29.60;43.79
20930;BME280;21895;47.072;15.132;2022-08-25T14:19:55;96603.00;;;29.59;44.22
20930;BME280;21895;47.072;15.132;2022-08-25T14:22:22;96602.00;;;29.55;43.62
20930;BME280;21895;47.072;15.132;2022-08-25T14:24:51;96602.00;;;29.39;44.13
20930;BME280;21895;47.072;15.132;2022-08-25T14:27:19;96599.00;;;29.22;45.63
20930;BME280;21895;47.072;15.132;2022-08-25T14:29:46;96600.00;;;29.27;44.94
20930;BME280;21895;47.072;15.132;2022-08-25T14:32:18;96598.00;;;29.16;45.97
20930;BME280;21895;47.072;15.132;2022-08-25T14:34:45;96593.00;;;29.18;45.33
20930;BME280;21895;47.072;15.132;2022-08-25T14:37:19;96594.00;;;29.11;46.18
20930;BME280;21895;47.072;15.132;2022-08-25T14:39:46;96602.00;;;29.44;44.77
20930;BME280;21895;47.072;15.132;2022-08-25T14:42:13;96593.00;;;29.30;45.73
20930;BME280;21895;47.072;15.132;2022-08-25T14:44:41;96582.00;;;29.32;45.31
20930;BME280;21895;47.072;15.132;2022-08-25T14:47:08;96591.00;;;29.55;44.78
20930;BME280;21895;47.072;15.132;2022-08-25T14:49:40;96586.00;;;29.35;45.18
20930;BME280;21895;47.072;15.132;2022-08-25T14:52:17;96594.00;;;29.33;45.09
20930;BME280;21895;47.072;15.132;2022-08-25T14:54:48;96587.00;;;29.24;44.59
20930;BME280;21895;47.072;15.132;2022-08-25T14:57:16;96579.00;;;29.30;43.85
20930;BME280;21895;47.072;15.132;2022-08-25T14:59:42;96575.00;;;29.35;43.46